Time;durP1;ratioP1;P1;durP2;ratioP2;P2;SDS_P1;SDS_P2;PMS_P1;PMS_P2;Temp;Humidity;BMP_temperature;BMP_pressure;BME280_temperature;BME280_humidity;BME280_pressure;Samples;Min_cycle;Max_cycle;Signal;HPM_P1;HPM_P2
2022/12/23 00:01:39;;;;;;;17.45;5.05;;;;;;;;;;5035113;28;20005;-90
2022/12/23 00:04:04;;;;;;;18.95;5.68;;;;;;;;;;5050767;28;20091;-90
2022/12/23 00:06:29;;;;;;;17.05;5.03;;;;;;;;;;5034489;28;20041;-89
2022/12/23 00:08:56;;;;;;;18.17;5.65;;;;;;;;;;5035172;28;20025;-89
2022/12/23 00:11:22;;;;;;;14.55;6.15;;;;;;;;;;5050225;28;20041;-90
2022/12/23 00:16:34;;;;;;;20.63;6.85;;;;;;;;;;5035302;28;20020;-90
2022/12/23 00:18:59;;;;;;;18.80;6.25;;;;;;;;;;5032645;28;20495;-90
2022/12/23 00:21:24;;;;;;;20.77;5.88;;;;;;;;;;5034880;28;20018;-90
2022/12/23 00:23:50;;;;;;;17.52;7.65;;;;;;;;;;5050090;28;20028;-89
2022/12/23 00:26:17;;;;;;;21.40;7.68;;;;;;;;;;5034591;28;20466;-89
2022/12/23 00:28:42;;;;;;;20.27;6.63;;;;;;;;;;5049736;28;20026;-90
2022/12/23 00:31:08;;;;;;;28.38;8.68;;;;;;;;;;5050083;28;20037;-88
2022/12/23 00:33:35;;;;;;;25.75;8.18;;;;;;;;;;5049615;28;20104;-89
2022/12/23 00:36:00;;;;;;;18.00;6.82;;;;;;;;;;5049765;28;20013;-89
2022/12/23 00:43:58;;;;;;;22.35;7.30;;;;;;;;;;5034624;28;20028;-89
2022/12/23 00:46:23;;;;;;;15.50;6.15;;;;;;;;;;5032927;28;20025;-90
2022/12/23 00:51:33;;;;;;;19.10;5.97;;;;;;;;;;5033574;28;20109;-89
2022/12/23 00:53:58;;;;;;;17.58;5.95;;;;;;;;;;5049272;28;20053;-90
2022/12/23 00:56:23;;;;;;;19.67;5.68;;;;;;;;;;5033913;28;20064;-89
2022/12/23 00:58:48;;;;;;;20.85;5.57;;;;;;;;;;5040057;28;20378;-89
2022/12/23 01:06:41;;;;;;;18.77;5.05;;;;;;;;;;5033885;28;20032;-90
2022/12/23 01:09:06;;;;;;;11.63;3.88;;;;;;;;;;5032361;28;20021;-90
2022/12/23 01:11:31;;;;;;;17.35;4.63;;;;;;;;;;5033517;28;20048;-90
2022/12/23 01:13:57;;;;;;;14.25;4.65;;;;;;;;;;5032299;28;20123;-90
2022/12/23 01:16:22;;;;;;;17.55;4.30;;;;;;;;;;5047978;28;20049;-90
2022/12/23 01:18:47;;;;;;;17.85;4.25;;;;;;;;;;5048986;28;20377;-90
2022/12/23 01:21:12;;;;;;;12.65;4.00;;;;;;;;;;5032255;28;20021;-90
2022/12/23 01:23:38;;;;;;;16.10;3.88;;;;;;;;;;5033620;28;20045;-90
2022/12/23 01:26:04;;;;;;;13.65;3.95;;;;;;;;;;5033306;28;20119;-89
2022/12/23 01:28:30;;;;;;;9.63;3.58;;;;;;;;;;5031180;28;20031;-90
2022/12/23 01:30:55;;;;;;;21.92;4.80;;;;;;;;;;5048287;28;20101;-89
2022/12/23 01:33:20;;;;;;;13.88;3.85;;;;;;;;;;5032164;28;20083;-90
2022/12/23 01:35:46;;;;;;;15.38;3.85;;;;;;;;;;5033273;28;20071;-90
2022/12/23 01:38:11;;;;;;;18.48;4.10;;;;;;;;;;5032160;28;20029;-89
2022/12/23 01:40:38;;;;;;;8.35;3.22;;;;;;;;;;5031825;28;20100;-90
2022/12/23 01:43:03;;;;;;;18.35;3.95;;;;;;;;;;5032065;28;20056;-90
2022/12/23 01:45:29;;;;;;;15.73;4.53;;;;;;;;;;5046445;28;20330;-89
2022/12/23 01:48:01;;;;;;;12.80;3.33;;;;;;;;;;5019054;28;20029;-90
2022/12/23 01:50:26;;;;;;;12.47;3.03;;;;;;;;;;5048163;28;20024;-89
2022/12/23 01:52:54;;;;;;;16.08;4.35;;;;;;;;;;5045176;28;20037;-89
2022/12/23 01:55:21;;;;;;;12.13;3.13;;;;;;;;;;5037198;28;20037;-90
2022/12/23 01:57:47;;;;;;;15.48;3.10;;;;;;;;;;5048120;28;20075;-90
2022/12/23 02:09:15;;;;;;;10.65;2.60;;;;;;;;;;5031263;28;20033;-90
2022/12/23 02:11:32;;;;;;;14.88;3.10;;;;;;;;;;5032633;28;20495;-90
2022/12/23 02:16:53;;;;;;;11.68;3.00;;;;;;;;;;5031673;28;20557;-87
2022/12/23 02:19:42;;;;;;;11.48;2.40;;;;;;;;;;5023513;28;20080;-90
2022/12/23 02:22:26;;;;;;;14.32;2.60;;;;;;;;;;5046427;28;20031;-90
2022/12/23 02:24:54;;;;;;;10.80;2.88;;;;;;;;;;5032857;28;20478;-89
2022/12/23 02:27:19;;;;;;;15.90;2.75;;;;;;;;;;5041921;28;20044;-90
2022/12/23 02:29:44;;;;;;;16.45;2.88;;;;;;;;;;5039232;28;20025;-90
2022/12/23 02:32:13;;;;;;;13.00;2.53;;;;;;;;;;5048138;28;20075;-90
2022/12/23 02:34:57;;;;;;;10.90;2.20;;;;;;;;;;5048024;28;20112;-90
2022/12/23 02:37:37;;;;;;;11.63;2.15;;;;;;;;;;5044098;28;20484;-90
2022/12/23 02:40:18;;;;;;;10.30;2.10;;;;;;;;;;5032535;28;20029;-90
2022/12/23 02:42:49;;;;;;;8.70;2.50;;;;;;;;;;5034012;28;20093;-90
2022/12/23 02:45:37;;;;;;;10.45;1.90;;;;;;;;;;5029374;28;20052;-90
2022/12/23 02:48:13;;;;;;;9.60;2.40;;;;;;;;;;5020061;28;20017;-89
2022/12/23 02:50:39;;;;;;;11.45;2.33;;;;;;;;;;5033442;28;20029;-90
2022/12/23 02:53:14;;;;;;;11.25;2.20;;;;;;;;;;5036449;28;20021;-91
2022/12/23 02:55:40;;;;;;;9.90;2.40;;;;;;;;;;5038149;28;20121;-90
2022/12/23 02:58:08;;;;;;;8.38;2.10;;;;;;;;;;5048155;28;20097;-91
2022/12/23 03:00:34;;;;;;;12.23;2.38;;;;;;;;;;5043808;28;20047;-91
2022/12/23 03:03:00;;;;;;;15.02;2.97;;;;;;;;;;5050055;28;20009;-90
2022/12/23 03:05:31;;;;;;;11.52;2.67;;;;;;;;;;5035122;28;20021;-90
2022/12/23 03:07:59;;;;;;;10.48;3.13;;;;;;;;;;5034946;28;20037;-90
2022/12/23 03:10:33;;;;;;;15.95;2.85;;;;;;;;;;5034703;28;20032;-90
2022/12/23 03:13:15;;;;;;;10.15;2.33;;;;;;;;;;5035333;28;20049;-90
2022/12/23 03:15:46;;;;;;;10.13;2.53;;;;;;;;;;5041703;28;20504;-90
2022/12/23 03:18:20;;;;;;;10.45;2.40;;;;;;;;;;5051146;28;20163;-90
2022/12/23 03:20:52;;;;;;;15.23;2.50;;;;;;;;;;5034731;28;20129;-90
2022/12/23 03:23:31;;;;;;;14.25;2.38;;;;;;;;;;5035932;28;20067;-89
2022/12/23 03:26:01;;;;;;;9.82;2.58;;;;;;;;;;5033678;28;20028;-89
2022/12/23 03:28:34;;;;;;;16.17;2.97;;;;;;;;;;5034340;28;20021;-91
2022/12/23 03:31:01;;;;;;;14.50;2.78;;;;;;;;;;5034320;28;20018;-88
2022/12/23 03:33:28;;;;;;;11.65;2.50;;;;;;;;;;5051072;28;20393;-90
2022/12/23 03:35:57;;;;;;;17.58;2.17;;;;;;;;;;5034817;28;20033;-90
2022/12/23 03:38:23;;;;;;;13.25;2.15;;;;;;;;;;5050854;28;20577;-90
2022/12/23 03:40:51;;;;;;;13.50;2.65;;;;;;;;;;5043749;28;20018;-90
2022/12/23 03:43:32;;;;;;;11.52;2.22;;;;;;;;;;5029179;28;20104;-90
2022/12/23 03:45:59;;;;;;;8.93;2.03;;;;;;;;;;5048809;28;20036;-90
2022/12/23 03:48:36;;;;;;;12.23;2.78;;;;;;;;;;5034279;28;20121;-89
2022/12/23 03:51:04;;;;;;;15.50;2.65;;;;;;;;;;5035184;28;20125;-90
2022/12/23 03:53:31;;;;;;;8.38;1.52;;;;;;;;;;5029374;28;20025;-90
2022/12/23 03:56:02;;;;;;;7.38;2.05;;;;;;;;;;5032986;28;20488;-90
2022/12/23 03:58:28;;;;;;;3.70;1.88;;;;;;;;;;5034107;28;20025;-91
2022/12/23 04:00:57;;;;;;;9.05;1.80;;;;;;;;;;5035656;28;20359;-90
2022/12/23 04:03:32;;;;;;;9.02;1.73;;;;;;;;;;5050656;28;20022;-90
2022/12/23 04:05:59;;;;;;;11.50;2.33;;;;;;;;;;5033728;28;20033;-91
2022/12/23 04:08:26;;;;;;;8.57;2.22;;;;;;;;;;5050053;28;20412;-90
2022/12/23 04:10:52;;;;;;;11.43;2.70;;;;;;;;;;5050465;28;20123;-91
2022/12/23 04:13:17;;;;;;;14.73;2.47;;;;;;;;;;5035000;28;20155;-90
2022/12/23 04:15:42;;;;;;;13.63;2.40;;;;;;;;;;5035023;28;20034;-90
2022/12/23 04:18:08;;;;;;;11.05;2.05;;;;;;;;;;5033483;28;20091;-90
2022/12/23 04:20:33;;;;;;;13.18;2.65;;;;;;;;;;5032791;28;20164;-90
2022/12/23 04:22:59;;;;;;;8.93;2.05;;;;;;;;;;5033538;28;20072;-90
2022/12/23 04:25:24;;;;;;;11.38;2.17;;;;;;;;;;5049914;28;20018;-90
2022/12/23 04:27:49;;;;;;;12.15;2.35;;;;;;;;;;5034915;28;20766;-91
2022/12/23 04:30:14;;;;;;;9.00;1.80;;;;;;;;;;5049916;28;20124;-90
2022/12/23 04:32:40;;;;;;;10.68;2.25;;;;;;;;;;5033990;28;20108;-90
2022/12/23 04:35:06;;;;;;;9.88;2.22;;;;;;;;;;5033152;28;20453;-90
2022/12/23 04:37:31;;;;;;;11.25;2.47;;;;;;;;;;5049827;28;20079;-89
2022/12/23 04:39:56;;;;;;;10.43;2.10;;;;;;;;;;5034390;28;20377;-89
2022/12/23 04:42:22;;;;;;;10.00;2.17;;;;;;;;;;5049784;28;20026;-90
2022/12/23 04:44:47;;;;;;;7.15;1.88;;;;;;;;;;5049107;28;20136;-91
2022/12/23 04:47:12;;;;;;;9.88;2.35;;;;;;;;;;5049922;28;20025;-91
2022/12/23 04:49:38;;;;;;;8.00;2.25;;;;;;;;;;5034058;28;20062;-89
2022/12/23 04:52:03;;;;;;;12.75;2.10;;;;;;;;;;5032378;28;20036;-89
2022/12/23 04:54:28;;;;;;;15.90;2.60;;;;;;;;;;5032905;28;20155;-89
2022/12/23 04:56:53;;;;;;;9.88;2.45;;;;;;;;;;5048590;28;20025;-90
2022/12/23 04:59:18;;;;;;;11.00;2.90;;;;;;;;;;5032658;28;20032;-90
2022/12/23 05:01:44;;;;;;;9.77;2.47;;;;;;;;;;5049094;28;20020;-89
2022/12/23 05:04:09;;;;;;;11.38;2.28;;;;;;;;;;5032864;28;20372;-89
2022/12/23 05:06:34;;;;;;;13.88;3.15;;;;;;;;;;5031364;28;20048;-89
2022/12/23 05:09:00;;;;;;;9.40;2.42;;;;;;;;;;5048588;28;20018;-90
2022/12/23 05:11:25;;;;;;;9.07;2.28;;;;;;;;;;5032321;28;20020;-90
2022/12/23 05:13:50;;;;;;;12.40;2.45;;;;;;;;;;5049209;28;20456;-90
2022/12/23 05:16:15;;;;;;;13.20;2.58;;;;;;;;;;5048720;28;20018;-89
2022/12/23 05:18:40;;;;;;;13.00;2.53;;;;;;;;;;5048772;28;20380;-89
2022/12/23 05:21:06;;;;;;;9.50;2.00;;;;;;;;;;5031380;28;20022;-90
2022/12/23 05:23:31;;;;;;;14.27;2.47;;;;;;;;;;5048866;28;20021;-90
2022/12/23 05:25:56;;;;;;;9.05;2.28;;;;;;;;;;5032090;28;20033;-90
2022/12/23 05:28:21;;;;;;;14.15;2.63;;;;;;;;;;5048765;28;20473;-90
2022/12/23 05:30:47;;;;;;;8.35;2.40;;;;;;;;;;5048626;28;20036;-89
2022/12/23 05:33:12;;;;;;;11.00;2.90;;;;;;;;;;5047943;28;20033;-89
2022/12/23 05:35:38;;;;;;;7.45;3.35;;;;;;;;;;5031764;28;20025;-90
2022/12/23 05:38:03;;;;;;;12.27;2.65;;;;;;;;;;5048578;28;20026;-90
2022/12/23 05:40:28;;;;;;;9.18;2.10;;;;;;;;;;5031774;28;20363;-90
2022/12/23 05:42:54;;;;;;;11.73;3.05;;;;;;;;;;5033018;28;20010;-89
2022/12/23 05:45:19;;;;;;;11.70;2.42;;;;;;;;;;5031838;28;20366;-90
2022/12/23 05:47:44;;;;;;;10.48;1.92;;;;;;;;;;5048356;28;20061;-90
2022/12/23 05:50:10;;;;;;;9.40;2.28;;;;;;;;;;5031532;28;20167;-89
2022/12/23 05:52:35;;;;;;;11.15;2.95;;;;;;;;;;5048225;28;20182;-90
2022/12/23 05:55:00;;;;;;;6.03;1.85;;;;;;;;;;5032960;28;20021;-90
2022/12/23 05:57:25;;;;;;;9.32;2.42;;;;;;;;;;5031543;28;20397;-88
2022/12/23 05:59:50;;;;;;;10.93;2.35;;;;;;;;;;5031882;28;20067;-90
2022/12/23 06:02:16;;;;;;;13.95;2.17;;;;;;;;;;5032528;28;20454;-90
2022/12/23 06:04:41;;;;;;;6.25;2.25;;;;;;;;;;5032721;28;20450;-90
2022/12/23 06:07:06;;;;;;;10.82;2.35;;;;;;;;;;5048215;28;20076;-90
2022/12/23 06:09:31;;;;;;;9.43;2.10;;;;;;;;;;5031006;28;20044;-90
2022/12/23 06:11:57;;;;;;;9.73;2.78;;;;;;;;;;5032925;28;20030;-90
2022/12/23 06:14:22;;;;;;;7.18;2.47;;;;;;;;;;5032849;28;20025;-90
2022/12/23 06:16:47;;;;;;;8.40;3.15;;;;;;;;;;5048005;28;20106;-90
2022/12/23 06:19:12;;;;;;;8.27;2.67;;;;;;;;;;5046443;28;20025;-90
2022/12/23 06:21:37;;;;;;;7.05;2.50;;;;;;;;;;5031493;28;20013;-91
2022/12/23 06:24:03;;;;;;;16.13;3.25;;;;;;;;;;5048206;28;20025;-90
2022/12/23 06:26:28;;;;;;;14.18;3.15;;;;;;;;;;5047903;28;20017;-91
2022/12/23 06:28:53;;;;;;;7.40;3.05;;;;;;;;;;5030996;28;20044;-90
2022/12/23 06:31:18;;;;;;;9.65;3.00;;;;;;;;;;5032800;28;20100;-90
2022/12/23 06:33:44;;;;;;;8.85;3.17;;;;;;;;;;5031528;28;20040;-90
2022/12/23 06:36:09;;;;;;;9.75;2.80;;;;;;;;;;5031143;28;20017;-90
2022/12/23 06:38:34;;;;;;;9.63;2.75;;;;;;;;;;5047906;28;20030;-90
2022/12/23 06:40:59;;;;;;;11.30;3.50;;;;;;;;;;5031220;28;20531;-90
2022/12/23 06:43:25;;;;;;;7.18;3.10;;;;;;;;;;5032768;28;20017;-90
2022/12/23 06:45:50;;;;;;;16.98;4.00;;;;;;;;;;5047817;28;20021;-90
2022/12/23 06:48:16;;;;;;;65.05;24.70;;;;;;;;;;5038133;28;20026;-90
2022/12/23 06:50:41;;;;;;;11.73;3.75;;;;;;;;;;5031258;28;20592;-90
2022/12/23 06:53:06;;;;;;;14.40;4.18;;;;;;;;;;5032485;28;20469;-90
2022/12/23 06:55:32;;;;;;;11.82;3.95;;;;;;;;;;5032615;28;20018;-90
2022/12/23 06:57:57;;;;;;;9.02;3.92;;;;;;;;;;5046877;28;20507;-90
2022/12/23 07:00:22;;;;;;;9.20;4.65;;;;;;;;;;5031249;28;20048;-90
2022/12/23 07:02:47;;;;;;;14.52;3.90;;;;;;;;;;5046278;28;20033;-89
2022/12/23 07:05:13;;;;;;;9.50;4.10;;;;;;;;;;5031111;28;20454;-89
2022/12/23 07:07:38;;;;;;;17.50;4.68;;;;;;;;;;5030117;28;20088;-90
2022/12/23 07:10:03;;;;;;;15.65;5.07;;;;;;;;;;5030258;28;20120;-90
2022/12/23 07:12:29;;;;;;;10.70;4.72;;;;;;;;;;5044679;28;20029;-89
2022/12/23 07:14:54;;;;;;;12.68;5.47;;;;;;;;;;5029885;28;20108;-89
2022/12/23 07:17:19;;;;;;;13.30;4.95;;;;;;;;;;5030076;28;20053;-89
2022/12/23 07:19:44;;;;;;;17.92;5.00;;;;;;;;;;5030459;28;20024;-89
2022/12/23 07:22:09;;;;;;;17.25;5.63;;;;;;;;;;5030128;28;20466;-89
2022/12/23 07:24:35;;;;;;;11.13;4.43;;;;;;;;;;5047261;28;20029;-90
2022/12/23 07:27:00;;;;;;;10.85;4.38;;;;;;;;;;5047265;28;20021;-89
2022/12/23 07:29:25;;;;;;;18.70;7.47;;;;;;;;;;5048099;28;20018;-90
2022/12/23 07:31:51;;;;;;;20.00;7.18;;;;;;;;;;5035474;28;20021;-85
2022/12/23 07:34:17;;;;;;;10.75;4.60;;;;;;;;;;5040297;28;20049;-89
2022/12/23 07:36:42;;;;;;;10.40;4.38;;;;;;;;;;5050065;28;20088;-89
2022/12/23 07:39:07;;;;;;;12.77;4.07;;;;;;;;;;5050711;28;20053;-89
2022/12/23 07:41:32;;;;;;;9.77;3.90;;;;;;;;;;5035328;28;20538;-89
2022/12/23 07:43:57;;;;;;;9.63;3.60;;;;;;;;;;5033923;28;20014;-89
2022/12/23 07:46:22;;;;;;;12.50;3.80;;;;;;;;;;5034427;28;20362;-89
2022/12/23 07:48:48;;;;;;;8.70;3.65;;;;;;;;;;5033903;28;20045;-89
2022/12/23 07:51:13;;;;;;;9.18;3.90;;;;;;;;;;5049848;28;20035;-89
2022/12/23 07:53:38;;;;;;;12.75;3.55;;;;;;;;;;5030784;28;20370;-90
2022/12/23 07:56:04;;;;;;;6.82;3.45;;;;;;;;;;5029047;28;20067;-89
2022/12/23 07:58:29;;;;;;;10.48;3.22;;;;;;;;;;5027376;28;20106;-89
2022/12/23 08:01:01;;;;;;;8.98;3.40;;;;;;;;;;5046603;28;20045;-90
2022/12/23 08:03:26;;;;;;;8.43;3.80;;;;;;;;;;5033147;28;20075;-89
2022/12/23 08:05:58;;;;;;;11.98;3.60;;;;;;;;;;5039754;28;20033;-88
2022/12/23 08:08:23;;;;;;;13.23;4.17;;;;;;;;;;5026148;28;20075;-89
2022/12/23 08:10:48;;;;;;;12.10;4.00;;;;;;;;;;5025220;28;20949;-88
2022/12/23 08:13:14;;;;;;;11.23;3.95;;;;;;;;;;5044021;28;20021;-89
2022/12/23 08:15:39;;;;;;;10.13;3.83;;;;;;;;;;5047506;28;20032;-89
2022/12/23 08:18:04;;;;;;;7.82;3.15;;;;;;;;;;5031105;28;20026;-89
2022/12/23 08:20:29;;;;;;;13.82;3.63;;;;;;;;;;5034850;28;20504;-88
2022/12/23 08:22:54;;;;;;;9.68;3.55;;;;;;;;;;5049653;28;20068;-89
2022/12/23 08:25:20;;;;;;;8.43;3.47;;;;;;;;;;5045645;28;20018;-88
2022/12/23 08:27:45;;;;;;;11.05;3.38;;;;;;;;;;5032772;28;20039;-88
2022/12/23 08:30:10;;;;;;;5.78;2.92;;;;;;;;;;5052630;28;20049;-88
2022/12/23 08:32:35;;;;;;;7.75;2.80;;;;;;;;;;5034072;28;20029;-89
2022/12/23 08:35:01;;;;;;;12.93;3.35;;;;;;;;;;5039740;28;20079;-88
2022/12/23 08:37:26;;;;;;;13.90;3.60;;;;;;;;;;5028043;28;20068;-87
2022/12/23 08:39:51;;;;;;;9.98;3.20;;;;;;;;;;5032837;28;20048;-88
2022/12/23 08:42:16;;;;;;;8.77;2.63;;;;;;;;;;5030883;28;20079;-87
2022/12/23 08:44:41;;;;;;;13.07;3.10;;;;;;;;;;5020854;28;20033;-87
2022/12/23 08:47:07;;;;;;;12.15;3.30;;;;;;;;;;5028222;28;20021;-89
2022/12/23 08:49:32;;;;;;;8.57;2.88;;;;;;;;;;5031038;28;20017;-89
2022/12/23 08:51:57;;;;;;;7.47;2.97;;;;;;;;;;5036178;28;20524;-88
2022/12/23 08:54:23;;;;;;;7.90;2.65;;;;;;;;;;5032432;28;20025;-91
2022/12/23 08:56:49;;;;;;;9.55;3.00;;;;;;;;;;5027667;28;20049;-89
2022/12/23 08:59:15;;;;;;;5.75;2.72;;;;;;;;;;5030812;28;20060;-91
2022/12/23 09:01:40;;;;;;;12.57;3.53;;;;;;;;;;5025681;28;20022;-92
2022/12/23 09:04:05;;;;;;;9.20;3.30;;;;;;;;;;5025927;28;20026;-90
2022/12/23 09:06:35;;;;;;;7.70;3.03;;;;;;;;;;5028968;28;20369;-90
2022/12/23 09:09:00;;;;;;;12.88;2.95;;;;;;;;;;5022274;28;20013;-88
2022/12/23 09:11:26;;;;;;;9.95;3.53;;;;;;;;;;5023266;28;20014;-91
2022/12/23 09:13:52;;;;;;;10.65;3.22;;;;;;;;;;5046282;28;20017;-90
2022/12/23 09:16:17;;;;;;;8.75;3.38;;;;;;;;;;5043058;28;20092;-90
2022/12/23 09:18:43;;;;;;;8.10;3.03;;;;;;;;;;5025158;28;20033;-89
2022/12/23 09:21:12;;;;;;;7.65;2.78;;;;;;;;;;5031522;28;20013;-90
2022/12/23 09:23:38;;;;;;;10.85;3.20;;;;;;;;;;5033276;28;20100;-89
2022/12/23 09:26:04;;;;;;;10.23;2.97;;;;;;;;;;5031694;28;20121;-91
2022/12/23 09:28:29;;;;;;;10.73;3.58;;;;;;;;;;5030097;28;20440;-90
2022/12/23 09:30:54;;;;;;;6.40;2.83;;;;;;;;;;5031065;28;20025;-90
2022/12/23 09:33:19;;;;;;;9.30;3.20;;;;;;;;;;5039616;28;20029;-89
2022/12/23 09:35:45;;;;;;;11.57;3.15;;;;;;;;;;5028762;28;20082;-89
2022/12/23 09:38:10;;;;;;;8.43;3.05;;;;;;;;;;5039118;28;20381;-88
2022/12/23 09:40:36;;;;;;;9.35;3.25;;;;;;;;;;5043713;28;20106;-89
2022/12/23 09:43:20;;;;;;;6.45;2.80;;;;;;;;;;5029748;28;20022;-88
2022/12/23 09:45:52;;;;;;;11.98;3.10;;;;;;;;;;5021070;28;20014;-88
2022/12/23 09:48:19;;;;;;;11.00;3.00;;;;;;;;;;5042995;28;20082;-89
2022/12/23 09:50:45;;;;;;;9.07;2.40;;;;;;;;;;5030488;28;20112;-88
2022/12/23 09:53:13;;;;;;;12.13;2.80;;;;;;;;;;5032808;28;20107;-89
2022/12/23 09:55:41;;;;;;;11.68;3.10;;;;;;;;;;5020203;28;20335;-90
2022/12/23 09:58:25;;;;;;;8.23;2.53;;;;;;;;;;5045605;28;20021;-89
2022/12/23 10:01:05;;;;;;;6.93;2.67;;;;;;;;;;5031974;28;20017;-90
2022/12/23 10:03:39;;;;;;;12.35;2.67;;;;;;;;;;5039134;28;20013;-89
2022/12/23 10:06:14;;;;;;;9.35;2.40;;;;;;;;;;5029025;28;20030;-90
2022/12/23 10:08:41;;;;;;;5.32;2.22;;;;;;;;;;5024481;28;20022;-91
2022/12/23 10:11:15;;;;;;;11.18;2.95;;;;;;;;;;5042704;28;20112;-90
2022/12/23 10:13:43;;;;;;;8.95;1.90;;;;;;;;;;5036617;28;20500;-92
2022/12/23 10:16:15;;;;;;;8.88;2.03;;;;;;;;;;5026702;28;20028;-92
2022/12/23 10:18:40;;;;;;;5.68;1.92;;;;;;;;;;5018331;28;20053;-92
2022/12/23 10:21:24;;;;;;;6.78;2.30;;;;;;;;;;5029748;28;20115;-91
2022/12/23 10:23:51;;;;;;;5.25;2.30;;;;;;;;;;5033444;28;20036;-92
2022/12/23 10:26:22;;;;;;;5.05;1.98;;;;;;;;;;5045113;28;20013;-93
2022/12/23 10:28:49;;;;;;;5.20;2.10;;;;;;;;;;5034859;28;20036;-90
2022/12/23 10:31:22;;;;;;;3.88;1.92;;;;;;;;;;5022310;28;20049;-91
2022/12/23 10:34:11;;;;;;;6.43;2.03;;;;;;;;;;5031577;28;20017;-92
2022/12/23 10:36:44;;;;;;;8.50;2.33;;;;;;;;;;5040094;28;20021;-91
2022/12/23 10:39:33;;;;;;;9.52;2.53;;;;;;;;;;5040943;28;20101;-91
2022/12/23 10:42:06;;;;;;;7.80;2.25;;;;;;;;;;5036094;28;20058;-93
2022/12/23 10:44:53;;;;;;;8.10;2.22;;;;;;;;;;5027539;28;20052;-90
2022/12/23 10:47:37;;;;;;;4.03;1.80;;;;;;;;;;5030561;28;20021;-90
2022/12/23 10:50:22;;;;;;;5.07;1.70;;;;;;;;;;5045070;28;20108;-90
2022/12/23 10:52:48;;;;;;;4.35;1.60;;;;;;;;;;5026714;28;20456;-90
2022/12/23 10:55:23;;;;;;;4.72;1.63;;;;;;;;;;5022713;28;20029;-91
2022/12/23 10:57:49;;;;;;;5.95;1.70;;;;;;;;;;5029009;28;20021;-91
2022/12/23 11:00:17;;;;;;;6.72;1.52;;;;;;;;;;5032261;28;20014;-91
2022/12/23 11:02:45;;;;;;;6.15;2.03;;;;;;;;;;5043076;28;20025;-90
2022/12/23 11:05:15;;;;;;;7.05;1.80;;;;;;;;;;5033217;28;20021;-90
2022/12/23 11:07:42;;;;;;;4.63;1.52;;;;;;;;;;5034745;28;20021;-91
2022/12/23 11:10:13;;;;;;;5.82;1.45;;;;;;;;;;5036728;28;20025;-91
2022/12/23 11:12:40;;;;;;;8.80;1.80;;;;;;;;;;5043433;28;20048;-93
2022/12/23 11:15:23;;;;;;;6.38;2.20;;;;;;;;;;5046763;28;20044;-93
2022/12/23 11:17:56;;;;;;;6.35;1.90;;;;;;;;;;5034410;28;20037;-91
2022/12/23 11:20:21;;;;;;;5.47;1.88;;;;;;;;;;5051301;28;20418;-92
2022/12/23 11:22:48;;;;;;;6.80;1.70;;;;;;;;;;5043287;28;20049;-91
2022/12/23 11:25:16;;;;;;;7.55;2.00;;;;;;;;;;5025492;28;20049;-92
2022/12/23 11:27:43;;;;;;;3.72;1.63;;;;;;;;;;5045831;28;20057;-90
2022/12/23 11:30:15;;;;;;;5.32;1.77;;;;;;;;;;5039949;28;20024;-93
2022/12/23 11:32:41;;;;;;;3.95;1.67;;;;;;;;;;5031707;28;20017;-93
2022/12/23 11:35:22;;;;;;;3.67;1.70;;;;;;;;;;5031036;28;20028;-92
2022/12/23 11:37:47;;;;;;;4.43;1.80;;;;;;;;;;5027295;28;20026;-90
2022/12/23 11:40:21;;;;;;;4.03;1.70;;;;;;;;;;5030122;28;20018;-89
2022/12/23 11:42:46;;;;;;;4.93;2.35;;;;;;;;;;5023039;28;20040;-88
2022/12/23 11:45:19;;;;;;;4.03;1.63;;;;;;;;;;5034785;28;20017;-88
2022/12/23 11:47:44;;;;;;;3.60;1.70;;;;;;;;;;5031469;28;20393;-88
2022/12/23 11:50:19;;;;;;;3.05;1.63;;;;;;;;;;5043734;28;20020;-86
2022/12/23 11:52:49;;;;;;;4.80;1.50;;;;;;;;;;5021365;28;20036;-87
2022/12/23 11:55:23;;;;;;;5.38;1.60;;;;;;;;;;5029450;28;20368;-88
2022/12/23 11:57:48;;;;;;;4.03;1.70;;;;;;;;;;5040334;28;20503;-84
2022/12/23 12:00:16;;;;;;;7.00;2.00;;;;;;;;;;5025937;28;20117;-85
2022/12/23 12:02:43;;;;;;;3.08;1.30;;;;;;;;;;5034374;28;20784;-86
2022/12/23 12:05:29;;;;;;;2.63;1.23;;;;;;;;;;5029414;28;20025;-86
2022/12/23 12:07:58;;;;;;;3.03;1.50;;;;;;;;;;5041935;28;20422;-86
2022/12/23 12:10:27;;;;;;;2.97;1.45;;;;;;;;;;5046938;28;20428;-85
2022/12/23 12:13:16;;;;;;;4.28;1.30;;;;;;;;;;5029637;28;20029;-86
2022/12/23 12:15:41;;;;;;;6.10;1.25;;;;;;;;;;5033733;28;20064;-87
2022/12/23 12:18:08;;;;;;;2.75;1.00;;;;;;;;;;5047168;28;20025;-86
2022/12/23 12:20:44;;;;;;;2.50;1.27;;;;;;;;;;5053568;28;20044;-86
2022/12/23 12:23:12;;;;;;;1.98;1.30;;;;;;;;;;5029697;28;20025;-86
2022/12/23 12:25:56;;;;;;;3.17;1.35;;;;;;;;;;5028687;28;20037;-86
2022/12/23 12:28:23;;;;;;;2.17;1.42;;;;;;;;;;5031897;28;20033;-85
2022/12/23 12:30:57;;;;;;;1.90;1.17;;;;;;;;;;5033514;28;20037;-86
2022/12/23 12:33:29;;;;;;;1.80;1.02;;;;;;;;;;5034054;28;20033;-86
2022/12/23 12:35:54;;;;;;;;;;;;;;;;;;5038895;28;20113;-87
2022/12/23 12:38:28;;;;;;;1.92;0.90;;;;;;;;;;5029829;28;20264;-86
2022/12/23 12:40:57;;;;;;;2.35;1.10;;;;;;;;;;5051592;28;20266;-87
2022/12/23 12:43:41;;;;;;;2.33;0.90;;;;;;;;;;5017995;28;20022;-86
2022/12/23 12:46:09;;;;;;;2.53;1.20;;;;;;;;;;5032261;28;20354;-88
2022/12/23 12:48:45;;;;;;;2.63;1.02;;;;;;;;;;5025769;28;20413;-89
2022/12/23 12:51:23;;;;;;;1.95;1.10;;;;;;;;;;5040342;28;20026;-87
2022/12/23 12:53:52;;;;;;;3.33;1.30;;;;;;;;;;5030132;28;20053;-88
2022/12/23 12:56:23;;;;;;;3.90;1.10;;;;;;;;;;5047245;28;20101;-89
2022/12/23 12:58:48;;;;;;;4.97;1.43;;;;;;;;;;5031190;28;20036;-89
2022/12/23 13:01:26;;;;;;;2.33;1.40;;;;;;;;;;5030612;28;20025;-89
2022/12/23 13:04:15;;;;;;;1.95;1.15;;;;;;;;;;5043328;28;20087;-90
2022/12/23 13:06:52;;;;;;;3.13;1.33;;;;;;;;;;5034603;28;20029;-88
2022/12/23 13:09:17;;;;;;;3.47;1.70;;;;;;;;;;5050443;28;20021;-90
2022/12/23 13:11:52;;;;;;;2.65;1.30;;;;;;;;;;5022581;28;20083;-89
2022/12/23 13:14:32;;;;;;;4.75;1.90;;;;;;;;;;5027226;28;20022;-89
2022/12/23 13:17:13;;;;;;;4.70;2.58;;;;;;;;;;5040242;28;20051;-90
2022/12/23 13:19:38;;;;;;;5.63;2.08;;;;;;;;;;5048512;28;20023;-94
2022/12/23 13:22:08;;;;;;;5.32;2.63;;;;;;;;;;5017737;28;20017;-89
2022/12/23 13:24:52;;;;;;;4.32;2.40;;;;;;;;;;5028831;28;20113;-91
2022/12/23 13:27:26;;;;;;;5.53;2.38;;;;;;;;;;5040118;28;20021;-90
2022/12/23 13:30:12;;;;;;;3.97;2.03;;;;;;;;;;5039506;28;20068;-91
2022/12/23 13:32:37;;;;;;;4.75;2.60;;;;;;;;;;5031430;28;20064;-86
2022/12/23 13:35:03;;;;;;;4.90;2.40;;;;;;;;;;5022006;28;20514;-87
2022/12/23 13:37:28;;;;;;;3.30;2.22;;;;;;;;;;5035494;28;20029;-91
2022/12/23 13:40:09;;;;;;;5.03;2.35;;;;;;;;;;5029684;28;20050;-88
2022/12/23 13:42:38;;;;;;;3.03;1.92;;;;;;;;;;5020152;28;20167;-88
2022/12/23 13:45:04;;;;;;;4.95;2.22;;;;;;;;;;5024907;28;20049;-88
2022/12/23 13:47:48;;;;;;;2.63;1.75;;;;;;;;;;5029629;28;20430;-89
2022/12/23 13:50:31;;;;;;;4.85;2.75;;;;;;;;;;5036656;28;20370;-87
2022/12/23 13:53:08;;;;;;;4.15;2.25;;;;;;;;;;5027861;28;20444;-89
2022/12/23 13:55:43;;;;;;;3.33;1.63;;;;;;;;;;5031018;28;20107;-88
2022/12/23 13:58:14;;;;;;;2.65;1.80;;;;;;;;;;5031951;28;20068;-89
2022/12/23 14:00:39;;;;;;;7.15;1.75;;;;;;;;;;5025583;28;20112;-88
2022/12/23 14:03:15;;;;;;;1.75;1.30;;;;;;;;;;5020916;28;20048;-88
2022/12/23 14:05:43;;;;;;;5.43;1.52;;;;;;;;;;5033267;28;20026;-90
2022/12/23 14:08:18;;;;;;;3.58;1.15;;;;;;;;;;5042727;28;20470;-87
2022/12/23 14:10:57;;;;;;;1.40;1.10;;;;;;;;;;5045420;28;20094;-90
2022/12/23 14:13:36;;;;;;;1.48;1.02;;;;;;;;;;5029987;28;20035;-89
2022/12/23 14:16:20;;;;;;;1.85;1.13;;;;;;;;;;5040885;28;20025;-91
2022/12/23 14:19:04;;;;;;;1.83;1.20;;;;;;;;;;5045939;28;20132;-89
2022/12/23 14:21:41;;;;;;;2.78;1.02;;;;;;;;;;5032046;28;20014;-90
2022/12/23 14:24:18;;;;;;;1.20;0.90;;;;;;;;;;5020643;28;20010;-90
2022/12/23 14:26:59;;;;;;;1.27;0.82;;;;;;;;;;5023827;28;20028;-90
2022/12/23 14:29:27;;;;;;;3.17;1.10;;;;;;;;;;5041682;28;20148;-91
2022/12/23 14:31:56;;;;;;;4.15;1.65;;;;;;;;;;5020749;28;20012;-89
2022/12/23 14:34:24;;;;;;;1.98;0.80;;;;;;;;;;5036330;28;20013;-89
2022/12/23 14:37:08;;;;;;;0.73;0.70;;;;;;;;;;5019913;28;20474;-90
2022/12/23 14:39:33;;;;;;;2.35;0.60;;;;;;;;;;5030938;28;20035;-87
2022/12/23 14:41:58;;;;;;;0.70;0.60;;;;;;;;;;5034355;28;20124;-86
2022/12/23 14:44:27;;;;;;;1.83;0.60;;;;;;;;;;5044627;28;20129;-85
2022/12/23 14:46:52;;;;;;;1.50;0.60;;;;;;;;;;5018575;28;20109;-85
2022/12/23 14:49:22;;;;;;;2.08;0.60;;;;;;;;;;5043891;28;20481;-85
2022/12/23 14:51:50;;;;;;;1.25;0.60;;;;;;;;;;5043897;28;20416;-85
2022/12/23 14:54:16;;;;;;;2.72;0.50;;;;;;;;;;5041362;28;20045;-86
2022/12/23 14:56:55;;;;;;;4.75;0.68;;;;;;;;;;5031114;28;20033;-85
2022/12/23 14:59:39;;;;;;;0.95;0.30;;;;;;;;;;5032862;28;20022;-84
2022/12/23 15:02:23;;;;;;;4.18;0.68;;;;;;;;;;5032462;28;20021;-84
2022/12/23 15:04:51;;;;;;;5.35;1.40;;;;;;;;;;5046931;28;20037;-85
2022/12/23 15:07:23;;;;;;;5.20;1.05;;;;;;;;;;5029797;28;20017;-85
2022/12/23 15:09:53;;;;;;;1.95;0.65;;;;;;;;;;5032745;28;20020;-86
2022/12/23 15:12:22;;;;;;;4.03;0.77;;;;;;;;;;5032103;28;20072;-84
2022/12/23 15:14:50;;;;;;;2.95;0.85;;;;;;;;;;5032078;28;20029;-84
2022/12/23 15:17:16;;;;;;;4.55;1.00;;;;;;;;;;5047768;28;20030;-84